Aérodrome :
LOGIN :

S'inscrire | Disclaimer

   EN    FR    IT 

 










Légende :    VFR   VFR Marginal   IFR   IFR Intensif   IFR Très Intensif
Visi : 
Plafond : 
>= 8 km
>= 3000ft
5 à 8 km
1000 à 3000 ft
1500m à 5 km
500 à 1000 ft
800 à 1500m
200 à 500 ft
< 800m
< 200 ft
Symboles :   Orages  Brouillard  Fortes neiges  Fortes précipitations  Vent > 20 kt
SIGMETs :   Divers  Orages  Givrage  Turbulence  Onde Orograph.  Cendres Volcan.







- Altitude de l'aérodrome : 681 ft
- Code IATA : LBA
- Voir les cartes d'approche


EGNM - Leeds Bradford

DERNIER METAR :
  • 221620Z 09011KT 010V170 CAVOK 19/05 Q1004

METARs EXPIRÉS :
  • 221550Z 10014KT 080V160 CAVOK 19/05 Q1004
  • 221520Z 10014KT 010V160 CAVOK 19/06 Q1005
  • 221450Z 11011KT 010V160 CAVOK 20/08 Q1005
  • 221420Z 11011KT 090V160 CAVOK 19/07 Q1005
  • 221350Z 10011KT 010V160 CAVOK 19/07 Q1006
  • 221320Z 11008KT 080V160 CAVOK 20/05 Q1006

TAF TAF EGNM
Valide du 22 à 12h jusqu'au 23 à 12h UTC


221056Z 2212/2312 12010KT CAVOK
BECMG 2221/2224 VRB03KT
PROB30
TEMPO 2303/2308 8000
BECMG 2308/2311 08010KT
ATIS : +44 113 250 9696 (x2489)
Pas de NOTAMs connus pour ce terrain.



MET'MAP, la Météo Aéronautique d'un coup d'oeil ! - Copyright ORBIFLY Décembre 2007 - Disclaimer

ORBIFLY MET'MAP TEAM :

Programmation & Développement : Alexandra Zaïnal
Conception & Développement : Baudouin d'Aumeries
Co-Programmation & Développement : Marc-Olivier Méhu
Soutien technique & logistique : Manuel Goepfert

Contact : metmap@orbifly.com




SOURCES & CREDITS :

   NOAA